sensor_id;sensor_type;location;lat;lon;timestamp;pressure;altitude;pressure_sealevel;temperature;humidity
26859;BME280;14429;48.346;16.338;2023-03-16T00:02:15;100153.81;;;12.40;47.28
26859;BME280;14429;48.346;16.338;2023-03-16T00:04:42;100155.56;;;12.15;46.12
26859;BME280;14429;48.346;16.338;2023-03-16T00:07:09;100160.97;;;12.01;45.89
26859;BME280;14429;48.346;16.338;2023-03-16T00:09:35;100158.00;;;12.06;47.23
26859;BME280;14429;48.346;16.338;2023-03-16T00:12:01;100178.13;;;10.92;43.31
26859;BME280;14429;48.346;16.338;2023-03-16T00:14:27;100168.94;;;11.51;48.63
26859;BME280;14429;48.346;16.338;2023-03-16T00:16:52;100168.69;;;12.06;48.00
26859;BME280;14429;48.346;16.338;2023-03-16T00:19:18;100180.06;;;11.83;48.34
26859;BME280;14429;48.346;16.338;2023-03-16T00:21:45;100187.91;;;11.98;48.13
26859;BME280;14429;48.346;16.338;2023-03-16T00:24:10;100174.66;;;11.97;47.98
26859;BME280;14429;48.346;16.338;2023-03-16T00:26:36;100184.84;;;11.78;47.38
26859;BME280;14429;48.346;16.338;2023-03-16T00:29:01;100188.88;;;11.97;47.88
26859;BME280;14429;48.346;16.338;2023-03-16T00:31:27;100182.16;;;12.04;47.29
26859;BME280;14429;48.346;16.338;2023-03-16T00:33:52;100193.47;;;11.95;47.10
26859;BME280;14429;48.346;16.338;2023-03-16T00:36:17;100189.38;;;11.90;47.76
26859;BME280;14429;48.346;16.338;2023-03-16T00:38:44;100198.22;;;12.16;47.59
26859;BME280;14429;48.346;16.338;2023-03-16T00:41:11;100188.06;;;12.09;47.41
26859;BME280;14429;48.346;16.338;2023-03-16T00:43:37;100200.75;;;12.06;47.04
26859;BME280;14429;48.346;16.338;2023-03-16T00:46:02;100201.88;;;12.15;47.54
26859;BME280;14429;48.346;16.338;2023-03-16T00:48:27;100205.09;;;12.20;47.45
26859;BME280;14429;48.346;16.338;2023-03-16T00:50:53;100211.47;;;11.40;47.47
26859;BME280;14429;48.346;16.338;2023-03-16T00:53:18;100209.41;;;11.97;47.92
26859;BME280;14429;48.346;16.338;2023-03-16T00:55:45;100214.44;;;12.01;47.88
26859;BME280;14429;48.346;16.338;2023-03-16T00:58:11;100210.78;;;12.02;47.83
26859;BME280;14429;48.346;16.338;2023-03-16T01:00:36;100210.75;;;12.16;47.48
26859;BME280;14429;48.346;16.338;2023-03-16T01:03:02;100207.75;;;12.20;47.47
26859;BME280;14429;48.346;16.338;2023-03-16T01:05:27;100206.56;;;11.86;46.91
26859;BME280;14429;48.346;16.338;2023-03-16T01:07:52;100211.25;;;12.09;47.53
26859;BME280;14429;48.346;16.338;2023-03-16T01:10:18;100200.59;;;12.21;47.29
26859;BME280;14429;48.346;16.338;2023-03-16T01:12:45;100207.56;;;12.23;47.27
26859;BME280;14429;48.346;16.338;2023-03-16T01:15:10;100197.84;;;12.22;47.24
26859;BME280;14429;48.346;16.338;2023-03-16T01:17:36;100207.03;;;11.92;47.00
26859;BME280;14429;48.346;16.338;2023-03-16T01:20:01;100203.22;;;12.09;47.48
26859;BME280;14429;48.346;16.338;2023-03-16T01:22:27;100195.63;;;12.03;46.27
26859;BME280;14429;48.346;16.338;2023-03-16T01:24:52;100204.41;;;12.05;47.58
26859;BME280;14429;48.346;16.338;2023-03-16T01:27:18;100200.59;;;11.95;46.74
26859;BME280;14429;48.346;16.338;2023-03-16T01:29:45;100196.53;;;11.63;46.99
26859;BME280;14429;48.346;16.338;2023-03-16T01:32:11;100199.72;;;11.82;45.48
26859;BME280;14429;48.346;16.338;2023-03-16T01:34:37;100210.78;;;11.23;46.74
26859;BME280;14429;48.346;16.338;2023-03-16T01:37:02;100213.88;;;11.70;48.26
26859;BME280;14429;48.346;16.338;2023-03-16T01:39:28;100228.16;;;11.43;45.30
26859;BME280;14429;48.346;16.338;2023-03-16T01:41:53;100229.31;;;11.79;47.74
26859;BME280;14429;48.346;16.338;2023-03-16T01:44:20;100217.38;;;11.85;47.98
26859;BME280;14429;48.346;16.338;2023-03-16T01:46:47;100225.38;;;11.58;47.98
26859;BME280;14429;48.346;16.338;2023-03-16T01:49:15;100222.69;;;11.58;44.96
26859;BME280;14429;48.346;16.338;2023-03-16T01:51:44;100224.75;;;11.67;47.95
26859;BME280;14429;48.346;16.338;2023-03-16T01:54:14;100216.28;;;11.87;47.84
26859;BME280;14429;48.346;16.338;2023-03-16T01:56:48;100223.81;;;11.94;47.68
26859;BME280;14429;48.346;16.338;2023-03-16T01:59:17;100230.44;;;11.89;47.56
26859;BME280;14429;48.346;16.338;2023-03-16T02:01:45;100227.91;;;12.00;47.41
26859;BME280;14429;48.346;16.338;2023-03-16T02:04:23;100235.63;;;11.78;46.57
26859;BME280;14429;48.346;16.338;2023-03-16T02:06:53;100235.28;;;11.15;42.53
26859;BME280;14429;48.346;16.338;2023-03-16T02:09:19;100236.97;;;11.71;48.21
26859;BME280;14429;48.346;16.338;2023-03-16T02:11:45;100244.78;;;10.78;42.61
26859;BME280;14429;48.346;16.338;2023-03-16T02:14:11;100237.94;;;11.15;48.50
26859;BME280;14429;48.346;16.338;2023-03-16T02:16:37;100240.22;;;11.62;48.30
26859;BME280;14429;48.346;16.338;2023-03-16T02:19:05;100236.59;;;11.63;48.12
26859;BME280;14429;48.346;16.338;2023-03-16T02:21:40;100233.75;;;11.66;48.05
26859;BME280;14429;48.346;16.338;2023-03-16T02:24:09;100231.22;;;11.77;47.89
26859;BME280;14429;48.346;16.338;2023-03-16T02:26:39;100230.88;;;11.69;47.87
26859;BME280;14429;48.346;16.338;2023-03-16T02:29:16;100239.81;;;11.68;47.76
26859;BME280;14429;48.346;16.338;2023-03-16T02:31:46;100245.59;;;11.49;47.88
26859;BME280;14429;48.346;16.338;2023-03-16T02:34:12;100242.97;;;11.75;47.95
26859;BME280;14429;48.346;16.338;2023-03-16T02:36:38;100241.91;;;11.77;47.70
26859;BME280;14429;48.346;16.338;2023-03-16T02:39:04;100236.16;;;11.83;47.66
26859;BME280;14429;48.346;16.338;2023-03-16T02:41:30;100239.75;;;11.70;46.84
26859;BME280;14429;48.346;16.338;2023-03-16T02:43:59;100242.63;;;11.26;46.27
26859;BME280;14429;48.346;16.338;2023-03-16T02:46:26;100244.22;;;11.69;47.79
26859;BME280;14429;48.346;16.338;2023-03-16T02:48:57;100240.19;;;11.76;47.75
26859;BME280;14429;48.346;16.338;2023-03-16T02:51:24;100250.19;;;11.86;47.52
26859;BME280;14429;48.346;16.338;2023-03-16T02:53:49;100245.53;;;11.76;47.36
26859;BME280;14429;48.346;16.338;2023-03-16T02:56:15;100247.66;;;11.71;47.74
26859;BME280;14429;48.346;16.338;2023-03-16T02:58:40;100246.09;;;11.81;47.66
26859;BME280;14429;48.346;16.338;2023-03-16T03:01:06;100249.44;;;11.85;47.38
26859;BME280;14429;48.346;16.338;2023-03-16T03:03:31;100253.00;;;11.71;47.55
26859;BME280;14429;48.346;16.338;2023-03-16T03:05:58;100260.47;;;11.53;48.13
26859;BME280;14429;48.346;16.338;2023-03-16T03:08:23;100258.72;;;11.65;47.91
26859;BME280;14429;48.346;16.338;2023-03-16T03:10:49;100266.16;;;11.60;45.78
26859;BME280;14429;48.346;16.338;2023-03-16T03:13:14;100269.13;;;11.56;47.84
26859;BME280;14429;48.346;16.338;2023-03-16T03:15:40;100275.53;;;11.54;47.68
26859;BME280;14429;48.346;16.338;2023-03-16T03:18:05;100268.34;;;11.68;47.80
26859;BME280;14429;48.346;16.338;2023-03-16T03:20:31;100285.81;;;11.46;46.92
26859;BME280;14429;48.346;16.338;2023-03-16T03:22:58;100289.16;;;11.49;47.76
26859;BME280;14429;48.346;16.338;2023-03-16T03:25:23;100286.78;;;11.45;47.77
26859;BME280;14429;48.346;16.338;2023-03-16T03:27:49;100293.16;;;11.42;47.73
26859;BME280;14429;48.346;16.338;2023-03-16T03:30:17;100297.81;;;11.11;43.55
26859;BME280;14429;48.346;16.338;2023-03-16T03:32:43;100309.06;;;11.03;46.91
26859;BME280;14429;48.346;16.338;2023-03-16T03:35:09;100305.25;;;11.06;49.05
26859;BME280;14429;48.346;16.338;2023-03-16T03:37:35;100304.31;;;11.21;45.46
26859;BME280;14429;48.346;16.338;2023-03-16T03:40:02;100310.78;;;11.31;48.40
26859;BME280;14429;48.346;16.338;2023-03-16T03:42:27;100310.22;;;11.54;48.01
26859;BME280;14429;48.346;16.338;2023-03-16T03:44:53;100313.69;;;11.42;48.20
26859;BME280;14429;48.346;16.338;2023-03-16T03:47:19;100312.81;;;11.41;47.92
26859;BME280;14429;48.346;16.338;2023-03-16T03:49:45;100313.63;;;11.28;47.47
26859;BME280;14429;48.346;16.338;2023-03-16T03:52:11;100314.78;;;11.24;47.46
26859;BME280;14429;48.346;16.338;2023-03-16T03:54:36;100312.16;;;11.38;48.11
26859;BME280;14429;48.346;16.338;2023-03-16T03:57:03;100312.34;;;11.49;48.11
26859;BME280;14429;48.346;16.338;2023-03-16T03:59:29;100305.56;;;11.57;47.81
26859;BME280;14429;48.346;16.338;2023-03-16T04:01:54;100315.38;;;11.29;44.96
26859;BME280;14429;48.346;16.338;2023-03-16T04:04:20;100317.63;;;11.07;43.44
26859;BME280;14429;48.346;16.338;2023-03-16T04:06:45;100320.66;;;11.02;44.39
26859;BME280;14429;48.346;16.338;2023-03-16T04:09:12;100321.19;;;11.22;48.41
26859;BME280;14429;48.346;16.338;2023-03-16T04:11:37;100318.31;;;11.25;48.40
26859;BME280;14429;48.346;16.338;2023-03-16T04:14:04;100320.72;;;11.43;48.00
26859;BME280;14429;48.346;16.338;2023-03-16T04:16:30;100330.06;;;11.50;47.95
26859;BME280;14429;48.346;16.338;2023-03-16T04:18:55;100327.34;;;11.51;47.81
26859;BME280;14429;48.346;16.338;2023-03-16T04:21:22;100320.72;;;10.57;42.92
26859;BME280;14429;48.346;16.338;2023-03-16T04:23:48;100326.97;;;11.14;48.48
26859;BME280;14429;48.346;16.338;2023-03-16T04:26:14;100332.06;;;10.90;45.51
26859;BME280;14429;48.346;16.338;2023-03-16T04:28:40;100342.13;;;10.27;49.09
26859;BME280;14429;48.346;16.338;2023-03-16T04:31:08;100336.66;;;10.88;48.24
26859;BME280;14429;48.346;16.338;2023-03-16T04:33:34;100345.59;;;10.87;48.66
26859;BME280;14429;48.346;16.338;2023-03-16T04:36:00;100336.75;;;10.42;44.77
26859;BME280;14429;48.346;16.338;2023-03-16T04:38:25;100348.50;;;10.53;49.80
26859;BME280;14429;48.346;16.338;2023-03-16T04:40:51;100348.47;;;10.98;49.12
26859;BME280;14429;48.346;16.338;2023-03-16T04:43:16;100350.28;;;10.68;49.09
26859;BME280;14429;48.346;16.338;2023-03-16T04:45:42;100359.31;;;10.95;49.02
26859;BME280;14429;48.346;16.338;2023-03-16T04:48:09;100362.03;;;11.08;48.48
26859;BME280;14429;48.346;16.338;2023-03-16T04:50:34;100353.47;;;11.03;47.58
26859;BME280;14429;48.346;16.338;2023-03-16T04:53:00;100357.31;;;11.27;48.50
26859;BME280;14429;48.346;16.338;2023-03-16T04:55:25;100358.06;;;11.15;48.52
26859;BME280;14429;48.346;16.338;2023-03-16T04:57:51;100361.03;;;9.92;46.58
26859;BME280;14429;48.346;16.338;2023-03-16T05:00:18;100354.28;;;10.61;49.76
26859;BME280;14429;48.346;16.338;2023-03-16T05:02:43;100366.53;;;10.35;48.35
26859;BME280;14429;48.346;16.338;2023-03-16T05:05:10;100368.03;;;10.69;49.39
26859;BME280;14429;48.346;16.338;2023-03-16T05:07:36;100371.56;;;10.99;48.88
26859;BME280;14429;48.346;16.338;2023-03-16T05:10:01;100378.72;;;10.39;47.34
26859;BME280;14429;48.346;16.338;2023-03-16T05:12:27;100384.97;;;10.97;48.85
26859;BME280;14429;48.346;16.338;2023-03-16T05:14:52;100381.22;;;10.86;48.79
26859;BME280;14429;48.346;16.338;2023-03-16T05:17:18;100388.94;;;10.46;46.43
26859;BME280;14429;48.346;16.338;2023-03-16T05:19:43;100388.28;;;10.27;45.29
26859;BME280;14429;48.346;16.338;2023-03-16T05:22:10;100392.78;;;10.71;48.97
26859;BME280;14429;48.346;16.338;2023-03-16T05:24:36;100391.34;;;9.26;47.19
26859;BME280;14429;48.346;16.338;2023-03-16T05:27:02;100393.00;;;10.23;50.50
26859;BME280;14429;48.346;16.338;2023-03-16T05:29:27;100398.69;;;10.32;50.24
26859;BME280;14429;48.346;16.338;2023-03-16T05:31:53;100401.41;;;10.46;49.49
26859;BME280;14429;48.346;16.338;2023-03-16T05:34:18;100398.69;;;10.76;49.30
26859;BME280;14429;48.346;16.338;2023-03-16T05:36:44;100405.47;;;10.52;49.15
26859;BME280;14429;48.346;16.338;2023-03-16T05:39:11;100408.97;;;10.68;48.83
26859;BME280;14429;48.346;16.338;2023-03-16T05:41:36;100413.28;;;10.55;48.32
26859;BME280;14429;48.346;16.338;2023-03-16T05:44:02;100414.50;;;10.35;44.58
26859;BME280;14429;48.346;16.338;2023-03-16T05:46:27;100412.19;;;10.88;49.24
26859;BME280;14429;48.346;16.338;2023-03-16T05:48:53;100423.28;;;9.09;47.98
26859;BME280;14429;48.346;16.338;2023-03-16T05:51:18;100425.16;;;10.20;50.31
26859;BME280;14429;48.346;16.338;2023-03-16T05:53:44;100422.75;;;10.46;50.00
26859;BME280;14429;48.346;16.338;2023-03-16T05:56:10;100430.63;;;10.01;44.63
26859;BME280;14429;48.346;16.338;2023-03-16T05:58:36;100437.16;;;10.72;47.59
26859;BME280;14429;48.346;16.338;2023-03-16T06:01:02;100437.34;;;10.84;48.97
26859;BME280;14429;48.346;16.338;2023-03-16T06:03:27;100445.34;;;9.76;49.23
26859;BME280;14429;48.346;16.338;2023-03-16T06:05:53;100444.34;;;10.56;49.79
26859;BME280;14429;48.346;16.338;2023-03-16T06:08:18;100447.84;;;10.72;49.09
26859;BME280;14429;48.346;16.338;2023-03-16T06:10:45;100448.47;;;10.47;48.62
26859;BME280;14429;48.346;16.338;2023-03-16T06:13:12;100454.97;;;10.87;49.03
26859;BME280;14429;48.346;16.338;2023-03-16T06:15:38;100461.22;;;11.01;48.57
26859;BME280;14429;48.346;16.338;2023-03-16T06:18:03;100452.25;;;11.17;48.16
26859;BME280;14429;48.346;16.338;2023-03-16T06:20:29;100450.72;;;11.13;48.25
26859;BME280;14429;48.346;16.338;2023-03-16T06:22:54;100461.03;;;10.45;47.34
26859;BME280;14429;48.346;16.338;2023-03-16T06:25:20;100461.66;;;10.94;48.64
26859;BME280;14429;48.346;16.338;2023-03-16T06:27:45;100474.34;;;10.45;44.43
26859;BME280;14429;48.346;16.338;2023-03-16T06:30:13;100472.63;;;10.74;49.06
26859;BME280;14429;48.346;16.338;2023-03-16T06:32:39;100473.63;;;10.87;48.47
26859;BME280;14429;48.346;16.338;2023-03-16T06:35:05;100473.16;;;10.80;47.23
26859;BME280;14429;48.346;16.338;2023-03-16T06:37:31;100473.38;;;11.20;45.23
26859;BME280;14429;48.346;16.338;2023-03-16T06:39:56;100477.19;;;11.16;47.37
26859;BME280;14429;48.346;16.338;2023-03-16T06:42:22;100483.56;;;11.72;43.30
26859;BME280;14429;48.346;16.338;2023-03-16T06:44:47;100492.56;;;11.71;46.36
26859;BME280;14429;48.346;16.338;2023-03-16T06:47:14;100479.91;;;11.88;46.05
26859;BME280;14429;48.346;16.338;2023-03-16T06:49:39;100484.56;;;11.98;45.59
26859;BME280;14429;48.346;16.338;2023-03-16T06:52:05;100487.06;;;11.45;46.49
26859;BME280;14429;48.346;16.338;2023-03-16T06:54:30;100484.44;;;11.58;44.54
26859;BME280;14429;48.346;16.338;2023-03-16T06:56:56;100488.63;;;11.62;46.59
26859;BME280;14429;48.346;16.338;2023-03-16T06:59:21;100482.72;;;11.71;44.07
26859;BME280;14429;48.346;16.338;2023-03-16T07:01:47;100491.88;;;11.67;44.64
26859;BME280;14429;48.346;16.338;2023-03-16T07:04:14;100490.00;;;11.54;46.56
26859;BME280;14429;48.346;16.338;2023-03-16T07:06:39;100497.19;;;11.54;46.57
26859;BME280;14429;48.346;16.338;2023-03-16T07:09:04;100494.44;;;11.55;46.75
26859;BME280;14429;48.346;16.338;2023-03-16T07:11:30;100489.06;;;11.26;46.39
26859;BME280;14429;48.346;16.338;2023-03-16T07:13:55;100492.66;;;11.40;46.91
26859;BME280;14429;48.346;16.338;2023-03-16T07:16:21;100493.69;;;11.38;46.84
26859;BME280;14429;48.346;16.338;2023-03-16T07:18:46;100493.69;;;11.38;46.88
26859;BME280;14429;48.346;16.338;2023-03-16T07:21:13;100492.81;;;11.37;46.76
26859;BME280;14429;48.346;16.338;2023-03-16T07:23:38;100495.75;;;11.33;45.79
26859;BME280;14429;48.346;16.338;2023-03-16T07:26:04;100498.16;;;11.37;45.10
26859;BME280;14429;48.346;16.338;2023-03-16T07:28:30;100497.66;;;11.31;44.78
26859;BME280;14429;48.346;16.338;2023-03-16T07:30:55;100502.28;;;11.14;44.22
26859;BME280;14429;48.346;16.338;2023-03-16T07:33:20;100496.94;;;11.43;44.68
26859;BME280;14429;48.346;16.338;2023-03-16T07:35:46;100509.94;;;11.49;44.78
26859;BME280;14429;48.346;16.338;2023-03-16T07:38:13;100502.63;;;11.37;44.73
26859;BME280;14429;48.346;16.338;2023-03-16T07:40:38;100505.66;;;11.31;43.72
26859;BME280;14429;48.346;16.338;2023-03-16T07:43:04;100504.22;;;11.41;45.08
26859;BME280;14429;48.346;16.338;2023-03-16T07:45:30;100506.25;;;11.36;44.98
26859;BME280;14429;48.346;16.338;2023-03-16T07:47:55;100503.81;;;11.47;45.00
26859;BME280;14429;48.346;16.338;2023-03-16T07:50:21;100506.09;;;11.39;42.71
26859;BME280;14429;48.346;16.338;2023-03-16T07:52:47;100506.72;;;11.44;44.98
26859;BME280;14429;48.346;16.338;2023-03-16T07:55:14;100515.28;;;11.49;44.19
26859;BME280;14429;48.346;16.338;2023-03-16T07:57:39;100514.72;;;11.44;42.76
26859;BME280;14429;48.346;16.338;2023-03-16T08:00:05;100509.72;;;11.38;45.30
26859;BME280;14429;48.346;16.338;2023-03-16T08:02:31;100511.09;;;11.45;45.17
26859;BME280;14429;48.346;16.338;2023-03-16T08:04:56;100509.16;;;11.47;45.17
26859;BME280;14429;48.346;16.338;2023-03-16T08:07:22;100511.94;;;11.45;45.21
26859;BME280;14429;48.346;16.338;2023-03-16T08:09:47;100512.97;;;11.43;45.21
26859;BME280;14429;48.346;16.338;2023-03-16T08:12:14;100506.44;;;11.48;45.08
26859;BME280;14429;48.346;16.338;2023-03-16T08:14:40;100512.44;;;11.52;45.03
26859;BME280;14429;48.346;16.338;2023-03-16T08:17:05;100527.09;;;11.45;45.26
26859;BME280;14429;48.346;16.338;2023-03-16T08:19:31;100522.28;;;11.51;45.08
26859;BME280;14429;48.346;16.338;2023-03-16T08:21:56;100525.97;;;11.49;45.12
26859;BME280;14429;48.346;16.338;2023-03-16T08:24:22;100524.72;;;11.54;45.22
26859;BME280;14429;48.346;16.338;2023-03-16T08:26:47;100531.72;;;11.57;44.82
26859;BME280;14429;48.346;16.338;2023-03-16T08:29:14;100533.13;;;11.48;43.98
26859;BME280;14429;48.346;16.338;2023-03-16T08:31:40;100535.53;;;11.53;44.81
26859;BME280;14429;48.346;16.338;2023-03-16T08:34:05;100538.59;;;11.60;45.02
26859;BME280;14429;48.346;16.338;2023-03-16T08:36:30;100523.94;;;11.67;44.33
26859;BME280;14429;48.346;16.338;2023-03-16T08:38:56;100539.50;;;11.75;44.52
26859;BME280;14429;48.346;16.338;2023-03-16T08:41:21;100534.63;;;11.67;44.47
26859;BME280;14429;48.346;16.338;2023-03-16T08:43:47;100527.47;;;11.68;44.81
26859;BME280;14429;48.346;16.338;2023-03-16T08:46:14;100524.59;;;11.71;44.79
26859;BME280;14429;48.346;16.338;2023-03-16T08:48:40;100528.75;;;11.61;44.93
26859;BME280;14429;48.346;16.338;2023-03-16T08:51:06;100525.63;;;11.68;43.14
26859;BME280;14429;48.346;16.338;2023-03-16T08:53:32;100533.13;;;11.77;44.54
26859;BME280;14429;48.346;16.338;2023-03-16T08:56:01;100536.03;;;11.59;45.05
26859;BME280;14429;48.346;16.338;2023-03-16T08:58:26;100534.31;;;11.58;44.99
26859;BME280;14429;48.346;16.338;2023-03-16T09:00:52;100533.25;;;11.60;44.97
26859;BME280;14429;48.346;16.338;2023-03-16T09:03:18;100520.75;;;11.61;45.08
26859;BME280;14429;48.346;16.338;2023-03-16T09:05:44;100529.63;;;11.61;44.41
26859;BME280;14429;48.346;16.338;2023-03-16T09:08:09;100527.38;;;11.69;44.81
26859;BME280;14429;48.346;16.338;2023-03-16T09:10:35;100532.34;;;11.75;44.75
26859;BME280;14429;48.346;16.338;2023-03-16T09:13:00;100531.41;;;11.90;42.66
26859;BME280;14429;48.346;16.338;2023-03-16T09:15:27;100528.53;;;11.79;44.46
26859;BME280;14429;48.346;16.338;2023-03-16T09:17:52;100526.03;;;11.76;44.49
26859;BME280;14429;48.346;16.338;2023-03-16T09:20:19;100533.50;;;11.85;44.23
26859;BME280;14429;48.346;16.338;2023-03-16T09:22:45;100536.41;;;11.96;42.80
26859;BME280;14429;48.346;16.338;2023-03-16T09:25:10;100538.28;;;11.94;39.85
26859;BME280;14429;48.346;16.338;2023-03-16T09:27:36;100524.25;;;11.77;35.66
26859;BME280;14429;48.346;16.338;2023-03-16T09:30:02;100532.72;;;11.69;39.23
26859;BME280;14429;48.346;16.338;2023-03-16T09:32:28;100526.41;;;11.70;40.84
26859;BME280;14429;48.346;16.338;2023-03-16T09:34:53;100533.34;;;11.88;43.58
26859;BME280;14429;48.346;16.338;2023-03-16T09:37:21;100536.56;;;11.93;43.33
26859;BME280;14429;48.346;16.338;2023-03-16T09:39:46;100530.88;;;12.12;37.47
26859;BME280;14429;48.346;16.338;2023-03-16T09:42:16;100523.41;;;12.17;37.66
26859;BME280;14429;48.346;16.338;2023-03-16T09:44:53;100531.44;;;12.17;37.99
26859;BME280;14429;48.346;16.338;2023-03-16T09:47:24;100528.19;;;12.12;42.90
26859;BME280;14429;48.346;16.338;2023-03-16T09:49:52;100528.72;;;11.76;41.10
26859;BME280;14429;48.346;16.338;2023-03-16T09:52:27;100517.16;;;11.62;35.96
26859;BME280;14429;48.346;16.338;2023-03-16T09:55:00;100516.69;;;11.83;44.00
26859;BME280;14429;48.346;16.338;2023-03-16T09:57:31;100529.31;;;11.52;36.27
26859;BME280;14429;48.346;16.338;2023-03-16T09:59:59;100520.84;;;11.59;42.94
26859;BME280;14429;48.346;16.338;2023-03-16T10:05:31;100518.75;;;11.64;39.09
26859;BME280;14429;48.346;16.338;2023-03-16T10:08:06;100520.75;;;11.47;37.80
26859;BME280;14429;48.346;16.338;2023-03-16T10:10:57;100528.09;;;11.57;42.11
26859;BME280;14429;48.346;16.338;2023-03-16T10:13:33;100532.50;;;11.72;40.15
26859;BME280;14429;48.346;16.338;2023-03-16T10:16:04;100536.03;;;11.59;40.42
26859;BME280;14429;48.346;16.338;2023-03-16T10:18:34;100534.78;;;11.64;36.42
26859;BME280;14429;48.346;16.338;2023-03-16T10:21:03;100526.44;;;11.26;34.80
26859;BME280;14429;48.346;16.338;2023-03-16T10:23:33;100527.75;;;11.63;42.04
26859;BME280;14429;48.346;16.338;2023-03-16T10:25:58;100529.09;;;11.70;43.03
26859;BME280;14429;48.346;16.338;2023-03-16T10:28:26;100529.22;;;11.83;40.92
26859;BME280;14429;48.346;16.338;2023-03-16T10:30:53;100527.50;;;11.82;41.05
26859;BME280;14429;48.346;16.338;2023-03-16T10:33:23;100530.66;;;11.88;43.39
26859;BME280;14429;48.346;16.338;2023-03-16T10:35:52;100515.88;;;11.96;43.45
26859;BME280;14429;48.346;16.338;2023-03-16T10:38:28;100526.06;;;11.90;37.42
26859;BME280;14429;48.346;16.338;2023-03-16T10:40:55;100528.91;;;11.87;43.33
26859;BME280;14429;48.346;16.338;2023-03-16T10:43:21;100525.56;;;11.84;43.72
26859;BME280;14429;48.346;16.338;2023-03-16T10:45:46;100522.03;;;11.69;39.20
26859;BME280;14429;48.346;16.338;2023-03-16T10:48:13;100520.69;;;11.76;43.96
26859;BME280;14429;48.346;16.338;2023-03-16T10:50:39;100520.91;;;11.73;43.17
26859;BME280;14429;48.346;16.338;2023-03-16T10:53:14;100523.38;;;11.76;44.37
26859;BME280;14429;48.346;16.338;2023-03-16T10:55:41;100533.47;;;11.42;34.69
26859;BME280;14429;48.346;16.338;2023-03-16T10:58:09;100514.94;;;11.68;42.21
26859;BME280;14429;48.346;16.338;2023-03-16T11:00:36;100514.16;;;11.53;35.19
26859;BME280;14429;48.346;16.338;2023-03-16T11:03:18;100510.97;;;11.17;34.08
26859;BME280;14429;48.346;16.338;2023-03-16T11:05:45;100512.97;;;11.28;39.74
26859;BME280;14429;48.346;16.338;2023-03-16T11:08:12;100512.13;;;11.27;37.54
26859;BME280;14429;48.346;16.338;2023-03-16T11:10:42;100504.53;;;11.35;35.67
26859;BME280;14429;48.346;16.338;2023-03-16T11:13:12;100506.72;;;11.57;42.70
26859;BME280;14429;48.346;16.338;2023-03-16T11:15:44;100514.78;;;11.71;44.41
26859;BME280;14429;48.346;16.338;2023-03-16T11:18:21;100501.25;;;11.74;43.38
26859;BME280;14429;48.346;16.338;2023-03-16T11:20:47;100511.75;;;11.77;44.03
26859;BME280;14429;48.346;16.338;2023-03-16T11:23:14;100506.53;;;11.60;35.86
26859;BME280;14429;48.346;16.338;2023-03-16T11:25:45;100512.84;;;11.59;41.75
26859;BME280;14429;48.346;16.338;2023-03-16T11:28:17;100508.94;;;11.36;41.47
26859;BME280;14429;48.346;16.338;2023-03-16T11:30:55;100504.44;;;11.52;40.53
26859;BME280;14429;48.346;16.338;2023-03-16T11:33:24;100502.22;;;10.85;33.66
26859;BME280;14429;48.346;16.338;2023-03-16T11:35:55;100502.16;;;11.15;45.21
26859;BME280;14429;48.346;16.338;2023-03-16T11:38:28;100496.78;;;11.46;44.96
26859;BME280;14429;48.346;16.338;2023-03-16T11:40:59;100501.75;;;11.52;39.75
26859;BME280;14429;48.346;16.338;2023-03-16T11:43:52;100488.31;;;11.09;34.63
26859;BME280;14429;48.346;16.338;2023-03-16T11:46:19;100473.03;;;11.26;35.44
26859;BME280;14429;48.346;16.338;2023-03-16T11:48:51;100479.50;;;11.22;43.77
26859;BME280;14429;48.346;16.338;2023-03-16T11:51:32;100478.69;;;11.51;44.45
26859;BME280;14429;48.346;16.338;2023-03-16T11:54:07;100474.56;;;11.30;40.44
26859;BME280;14429;48.346;16.338;2023-03-16T11:56:42;100472.78;;;11.59;44.44
26859;BME280;14429;48.346;16.338;2023-03-16T11:59:35;100466.41;;;11.33;34.01
26859;BME280;14429;48.346;16.338;2023-03-16T12:02:36;100467.63;;;11.57;43.83
26859;BME280;14429;48.346;16.338;2023-03-16T12:05:21;100459.25;;;11.62;44.46
26859;BME280;14429;48.346;16.338;2023-03-16T12:07:54;100465.91;;;11.56;44.97
26859;BME280;14429;48.346;16.338;2023-03-16T12:10:24;100464.00;;;11.57;37.02
26859;BME280;14429;48.346;16.338;2023-03-16T12:13:17;100457.84;;;11.42;41.46
26859;BME280;14429;48.346;16.338;2023-03-16T12:15:50;100445.13;;;11.60;43.96
26859;BME280;14429;48.346;16.338;2023-03-16T12:18:19;100450.38;;;11.62;43.38
26859;BME280;14429;48.346;16.338;2023-03-16T12:20:51;100437.13;;;11.74;43.84
26859;BME280;14429;48.346;16.338;2023-03-16T12:23:19;100442.34;;;11.76;43.26
26859;BME280;14429;48.346;16.338;2023-03-16T12:25:49;100436.16;;;11.75;43.07
26859;BME280;14429;48.346;16.338;2023-03-16T12:28:20;100446.53;;;11.52;36.78
26859;BME280;14429;48.346;16.338;2023-03-16T12:30:52;100425.19;;;11.66;42.11
26859;BME280;14429;48.346;16.338;2023-03-16T12:33:30;100433.69;;;11.58;43.31
26859;BME280;14429;48.346;16.338;2023-03-16T12:36:02;100429.47;;;11.55;44.15
26859;BME280;14429;48.346;16.338;2023-03-16T12:38:38;100424.13;;;11.68;44.59
26859;BME280;14429;48.346;16.338;2023-03-16T12:41:15;100439.19;;;11.56;35.25
26859;BME280;14429;48.346;16.338;2023-03-16T12:43:52;100424.53;;;11.62;39.27
26859;BME280;14429;48.346;16.338;2023-03-16T12:46:27;100416.94;;;11.41;34.14